createdAt,value
2018-04-15T00:01:53.609Z,11.43
2018-04-15T00:04:26.594Z,15.55
2018-04-15T00:06:59.080Z,11.68
2018-04-15T00:09:31.029Z,12.70
2018-04-15T00:12:04.183Z,12.00
2018-04-15T00:14:35.799Z,11.65
2018-04-15T00:17:08.204Z,12.40
2018-04-15T00:19:41.127Z,12.20
2018-04-15T00:22:13.822Z,11.82
2018-04-15T00:24:46.114Z,10.15
2018-04-15T00:27:20.500Z,9.18
2018-04-15T00:29:53.525Z,10.70
2018-04-15T00:32:26.209Z,11.18
2018-04-15T00:34:59.892Z,12.30
2018-04-15T00:37:32.605Z,11.73
2018-04-15T00:40:06.069Z,11.48
2018-04-15T00:42:37.825Z,12.57
2018-04-15T00:45:10.975Z,11.40
2018-04-15T00:47:44.507Z,11.10
2018-04-15T00:50:17.293Z,10.48
2018-04-15T00:52:49.947Z,12.98
2018-04-15T00:55:22.019Z,11.85
2018-04-15T00:57:55.291Z,11.12
2018-04-15T01:00:30.828Z,11.95
2018-04-15T01:03:03.617Z,11.90
2018-04-15T01:05:38.459Z,9.27
2018-04-15T01:08:12.606Z,14.38
2018-04-15T01:10:47.484Z,11.75
2018-04-15T01:13:20.014Z,11.88
2018-04-15T01:15:52.331Z,9.43
2018-04-15T01:18:24.500Z,10.15
2018-04-15T01:20:56.488Z,11.02
2018-04-15T01:23:28.252Z,10.05
2018-04-15T01:26:01.967Z,12.07
2018-04-15T01:28:34.679Z,9.48
2018-04-15T01:31:08.077Z,9.45
2018-04-15T01:33:41.407Z,10.18
2018-04-15T01:36:15.352Z,10.98
2018-04-15T01:38:48.089Z,9.88
2018-04-15T01:41:21.919Z,10.10
2018-04-15T01:43:55.501Z,9.63
2018-04-15T01:46:29.248Z,10.43
2018-04-15T01:49:01.776Z,12.10
2018-04-15T01:51:33.855Z,11.90
2018-04-15T01:54:06.063Z,10.82
2018-04-15T01:56:40.756Z,8.93
2018-04-15T01:59:14.939Z,8.75
2018-04-15T02:01:47.639Z,10.13
2018-04-15T02:04:19.984Z,8.05
2018-04-15T02:06:52.246Z,10.10
2018-04-15T02:09:24.382Z,10.00
2018-04-15T02:11:57.791Z,8.57
2018-04-15T02:14:30.130Z,10.40
2018-04-15T02:17:02.021Z,9.43
2018-04-15T02:19:34.371Z,10.55
2018-04-15T02:22:06.051Z,9.57
2018-04-15T02:24:38.736Z,9.25
2018-04-15T02:27:12.571Z,11.20
2018-04-15T02:29:44.719Z,8.43
2018-04-15T02:32:16.707Z,8.95
2018-04-15T02:34:50.598Z,8.95
2018-04-15T02:37:22.703Z,8.30
2018-04-15T02:39:54.604Z,8.25
2018-04-15T02:42:26.347Z,9.02
2018-04-15T02:44:58.654Z,9.55
2018-04-15T02:47:30.786Z,9.10
2018-04-15T02:50:02.564Z,8.38
2018-04-15T02:52:36.103Z,8.15
2018-04-15T02:55:08.309Z,7.93
2018-04-15T02:57:40.104Z,6.65
2018-04-15T03:00:11.553Z,8.25
2018-04-15T03:02:44.561Z,8.35
2018-04-15T03:05:18.122Z,7.55
2018-04-15T03:07:51.228Z,8.05
2018-04-15T03:10:24.393Z,7.55
2018-04-15T03:12:57.446Z,10.20
2018-04-15T03:15:29.342Z,9.10
2018-04-15T03:18:03.083Z,7.93
2018-04-15T03:20:34.222Z,7.80
2018-04-15T03:23:07.334Z,8.13
2018-04-15T03:25:38.963Z,8.25
2018-04-15T03:28:12.257Z,7.95
2018-04-15T03:30:44.326Z,8.18
2018-04-15T03:33:17.935Z,10.05
2018-04-15T03:35:51.520Z,6.93
2018-04-15T03:38:24.099Z,7.70
2018-04-15T03:40:56.065Z,7.85
2018-04-15T03:43:28.455Z,8.07
2018-04-15T03:45:59.860Z,8.40
2018-04-15T03:48:32.343Z,8.95
2018-04-15T03:51:03.644Z,7.30
2018-04-15T03:53:36.019Z,7.95
2018-04-15T03:56:07.235Z,7.03
2018-04-15T03:58:38.602Z,8.52
2018-04-15T04:01:10.131Z,7.25
2018-04-15T04:03:42.714Z,8.05
2018-04-15T04:06:14.590Z,7.37
2018-04-15T04:08:46.540Z,9.35
2018-04-15T04:11:18.906Z,8.80
2018-04-15T04:13:50.707Z,9.02
2018-04-15T04:16:24.429Z,12.57
2018-04-15T04:19:08.111Z,10.48
2018-04-15T04:21:52.906Z,9.27
2018-04-15T04:24:37.800Z,7.65
2018-04-15T04:27:11.926Z,8.48
2018-04-15T04:29:44.205Z,10.07
2018-04-15T04:32:16.928Z,8.80
2018-04-15T04:34:49.323Z,7.10
2018-04-15T04:37:21.734Z,9.35
2018-04-15T04:39:54.738Z,9.27
2018-04-15T04:42:28.641Z,9.50
2018-04-15T04:45:00.624Z,8.77
2018-04-15T04:47:33.970Z,8.13
2018-04-15T04:50:07.167Z,8.75
2018-04-15T04:52:39.531Z,12.50
2018-04-15T04:55:13.776Z,8.20
2018-04-15T04:57:47.802Z,7.00
2018-04-15T05:00:19.478Z,7.72
2018-04-15T05:02:52.256Z,7.90
2018-04-15T05:05:23.611Z,8.27
2018-04-15T05:07:58.408Z,8.70
2018-04-15T05:10:31.363Z,7.70
2018-04-15T05:13:04.118Z,9.02
2018-04-15T05:15:38.805Z,9.48
2018-04-15T05:18:11.951Z,10.60
2018-04-15T05:20:43.949Z,8.73
2018-04-15T05:23:16.738Z,7.10
2018-04-15T05:25:48.718Z,7.12
2018-04-15T05:28:21.359Z,8.18
2018-04-15T05:30:53.820Z,12.18
2018-04-15T05:33:26.167Z,11.52
2018-04-15T05:35:57.850Z,9.57
2018-04-15T05:38:29.965Z,8.10
2018-04-15T05:41:03.307Z,7.60
2018-04-15T05:43:36.959Z,7.80
2018-04-15T05:46:10.153Z,8.30
2018-04-15T05:48:46.164Z,6.82
2018-04-15T05:51:18.725Z,8.43
2018-04-15T05:53:50.169Z,7.40
2018-04-15T05:56:22.136Z,8.35
2018-04-15T05:58:54.957Z,6.12
2018-04-15T06:01:27.805Z,6.30
2018-04-15T06:03:59.624Z,5.55
2018-04-15T06:06:33.187Z,5.82
2018-04-15T06:09:07.883Z,8.10
2018-04-15T06:11:42.683Z,6.37
2018-04-15T06:14:14.759Z,4.87
2018-04-15T06:16:47.427Z,5.35
2018-04-15T06:19:19.936Z,4.85
2018-04-15T06:21:52.777Z,5.30
2018-04-15T06:24:28.541Z,4.37
2018-04-15T06:27:00.572Z,5.32
2018-04-15T06:29:33.165Z,5.93
2018-04-15T06:32:05.552Z,5.60
2018-04-15T06:34:37.601Z,7.07
2018-04-15T06:37:12.103Z,5.53
2018-04-15T06:39:44.055Z,5.28
2018-04-15T06:42:16.394Z,5.68
2018-04-15T06:44:48.850Z,4.43
2018-04-15T06:47:22.564Z,5.03
2018-04-15T06:49:57.018Z,6.55
2018-04-15T06:52:29.035Z,5.72
2018-04-15T06:55:01.426Z,6.10
2018-04-15T06:57:33.290Z,5.70
2018-04-15T07:00:05.903Z,5.78
2018-04-15T07:02:38.658Z,5.93
2018-04-15T07:05:11.279Z,4.75
2018-04-15T07:07:44.997Z,6.03
2018-04-15T07:10:16.067Z,5.18
2018-04-15T07:12:49.013Z,5.00
2018-04-15T07:15:20.783Z,5.70
2018-04-15T07:17:53.567Z,6.12
2018-04-15T07:20:25.104Z,6.13
2018-04-15T07:22:58.083Z,5.03
2018-04-15T07:25:30.556Z,5.57
2018-04-15T07:28:03.450Z,4.40
2018-04-15T07:30:36.731Z,5.13
2018-04-15T07:33:08.191Z,4.60
2018-04-15T07:35:41.464Z,5.70
2018-04-15T07:38:14.268Z,4.20
2018-04-15T07:40:49.917Z,4.43
2018-04-15T07:43:22.424Z,4.10
2018-04-15T07:45:57.744Z,4.20
2018-04-15T07:48:30.371Z,5.40
2018-04-15T07:51:02.247Z,5.90
2018-04-15T07:53:34.131Z,4.30
2018-04-15T07:56:07.270Z,4.80
2018-04-15T07:58:39.881Z,4.83
2018-04-15T08:01:12.400Z,3.70
2018-04-15T08:03:44.538Z,4.30
2018-04-15T08:06:17.176Z,5.30
2018-04-15T08:08:50.377Z,4.30
2018-04-15T08:11:21.575Z,5.50
2018-04-15T08:13:56.637Z,4.57
2018-04-15T08:16:29.073Z,8.27
2018-04-15T08:19:04.368Z,4.00
2018-04-15T08:21:35.801Z,6.20
2018-04-15T08:24:07.019Z,5.43
2018-04-15T08:26:38.840Z,3.97
2018-04-15T08:29:13.530Z,9.27
2018-04-15T08:31:47.167Z,5.20
2018-04-15T08:34:19.965Z,5.90
2018-04-15T08:36:51.318Z,5.07
2018-04-15T08:39:24.815Z,4.27
2018-04-15T08:41:57.306Z,7.07
2018-04-15T08:44:29.449Z,5.70
2018-04-15T08:47:00.759Z,5.70
2018-04-15T08:49:32.440Z,5.47
2018-04-15T08:52:04.239Z,4.73
2018-04-15T08:54:37.090Z,5.40
2018-04-15T08:57:08.683Z,4.90
2018-04-15T08:59:41.528Z,4.77
2018-04-15T09:02:14.963Z,5.10
2018-04-15T09:04:46.494Z,5.47
2018-04-15T09:07:18.208Z,5.00
2018-04-15T09:09:50.035Z,3.53
2018-04-15T09:12:22.611Z,5.60
2018-04-15T09:14:54.795Z,7.67
2018-04-15T09:17:26.374Z,6.33
2018-04-15T09:19:58.585Z,4.77
2018-04-15T09:22:31.707Z,6.07
2018-04-15T09:25:04.807Z,4.23
2018-04-15T09:27:37.849Z,5.93
2018-04-15T09:30:11.232Z,5.33
2018-04-15T09:32:44.061Z,9.90
2018-04-15T09:35:17.940Z,7.80
2018-04-15T09:37:50.445Z,6.17
2018-04-15T09:40:22.930Z,5.67
2018-04-15T09:42:56.219Z,6.73
2018-04-15T09:45:29.687Z,5.57
2018-04-15T09:48:02.555Z,7.37
2018-04-15T09:50:33.821Z,7.17
2018-04-15T09:53:05.483Z,6.27
2018-04-15T09:55:38.541Z,4.37
2018-04-15T09:58:10.589Z,6.90
2018-04-15T10:00:42.283Z,8.73
2018-04-15T10:03:16.457Z,7.10
2018-04-15T10:05:49.411Z,7.47
2018-04-15T10:08:21.893Z,6.73
2018-04-15T10:10:54.520Z,9.00
2018-04-15T10:13:29.470Z,5.60
2018-04-15T10:16:01.383Z,6.03
2018-04-15T10:18:34.402Z,7.43
2018-04-15T10:21:08.187Z,5.50
2018-04-15T10:23:40.268Z,7.87
2018-04-15T10:26:12.078Z,7.67
2018-04-15T10:28:43.517Z,7.32
2018-04-15T10:31:19.479Z,6.63
2018-04-15T10:33:56.665Z,6.97
2018-04-15T10:36:33.290Z,5.87
2018-04-15T10:39:09.671Z,6.03
2018-04-15T10:41:44.667Z,5.23
2018-04-15T10:44:21.499Z,5.73
2018-04-15T10:46:58.436Z,6.53
2018-04-15T10:49:39.116Z,6.53
2018-04-15T10:52:14.549Z,9.43
2018-04-15T10:54:50.756Z,5.60
2018-04-15T10:57:27.110Z,4.77
2018-04-15T11:00:05.247Z,6.13
2018-04-15T11:02:42.646Z,8.07
2018-04-15T11:05:20.547Z,9.87
2018-04-15T11:07:55.606Z,6.87
2018-04-15T11:10:31.300Z,7.47
2018-04-15T11:13:07.990Z,5.00
2018-04-15T11:15:44.267Z,6.73
2018-04-15T11:18:21.488Z,5.57
2018-04-15T11:20:56.850Z,5.83
2018-04-15T11:23:33.543Z,7.27
2018-04-15T11:26:09.190Z,5.53
2018-04-15T11:28:45.035Z,7.97
2018-04-15T11:31:22.090Z,7.10
2018-04-15T11:33:59.331Z,6.63
2018-04-15T11:36:37.904Z,6.47
2018-04-15T11:39:13.679Z,6.40
2018-04-15T11:41:50.861Z,7.00
2018-04-15T11:44:26.726Z,7.20
2018-04-15T11:47:02.269Z,4.87
2018-04-15T11:49:38.859Z,10.73
2018-04-15T11:52:14.986Z,9.33
2018-04-15T11:54:50.745Z,7.57
2018-04-15T11:57:27.114Z,5.13
2018-04-15T12:00:02.582Z,6.20
2018-04-15T12:02:39.685Z,7.73
2018-04-15T12:05:17.317Z,7.07
2018-04-15T12:07:53.803Z,8.63
2018-04-15T12:10:30.678Z,9.47
2018-04-15T12:13:07.498Z,6.50
2018-04-15T12:15:43.877Z,6.93
2018-04-15T12:18:20.560Z,6.70
2018-04-15T12:20:56.672Z,7.17
2018-04-15T12:23:32.297Z,9.67
2018-04-15T12:26:08.267Z,10.50
2018-04-15T12:28:44.586Z,7.73
2018-04-15T12:31:21.917Z,7.30
2018-04-15T12:33:57.836Z,10.97
2018-04-15T12:36:34.563Z,7.93
2018-04-15T12:39:11.705Z,8.77
2018-04-15T12:41:48.392Z,8.33
2018-04-15T12:44:25.094Z,6.23
2018-04-15T12:47:02.106Z,5.87
2018-04-15T12:49:38.655Z,6.63
2018-04-15T12:52:14.205Z,6.13
2018-04-15T12:54:49.667Z,7.07
2018-04-15T12:57:25.665Z,7.70
2018-04-15T13:00:03.852Z,6.10
2018-04-15T13:02:41.351Z,7.00
2018-04-15T13:05:18.919Z,10.20
2018-04-15T13:07:55.270Z,6.93
2018-04-15T13:10:32.235Z,4.70
2018-04-15T13:13:07.500Z,6.67
2018-04-15T13:15:43.670Z,7.97
2018-04-15T13:18:21.513Z,6.43
2018-04-15T13:20:58.716Z,8.30
2018-04-15T13:23:34.898Z,6.47
2018-04-15T13:26:12.414Z,3.73
2018-04-15T13:28:48.996Z,8.43
2018-04-15T13:31:25.376Z,7.07
2018-04-15T13:34:02.311Z,7.17
2018-04-15T13:36:39.119Z,5.90
2018-04-15T13:39:16.282Z,5.47
2018-04-15T13:41:54.162Z,6.97
2018-04-15T13:44:31.328Z,6.93
2018-04-15T13:47:08.917Z,8.07
2018-04-15T13:49:45.495Z,10.10
2018-04-15T13:52:21.419Z,3.83
2018-04-15T13:54:57.054Z,6.90
2018-04-15T13:57:33.197Z,6.30
2018-04-15T14:00:08.699Z,4.80
2018-04-15T14:02:44.799Z,5.67
2018-04-15T14:05:21.611Z,5.47
2018-04-15T14:07:58.633Z,6.93
2018-04-15T14:10:36.190Z,6.17
2018-04-15T14:13:11.987Z,5.47
2018-04-15T14:15:49.025Z,5.27
2018-04-15T14:18:26.243Z,6.63
2018-04-15T14:21:04.448Z,9.43
2018-04-15T14:23:40.825Z,4.57
2018-04-15T14:26:16.029Z,5.20
2018-04-15T14:28:51.618Z,10.50
2018-04-15T14:31:29.570Z,8.00
2018-04-15T14:34:07.217Z,8.63
2018-04-15T14:36:43.253Z,4.50
2018-04-15T14:39:20.000Z,7.10
2018-04-15T14:41:55.645Z,7.20
2018-04-15T14:44:31.513Z,6.57
2018-04-15T14:47:06.869Z,5.97
2018-04-15T14:49:41.970Z,4.93
2018-04-15T14:52:17.082Z,6.93
2018-04-15T14:54:53.532Z,5.47
2018-04-15T14:57:29.029Z,6.17
2018-04-15T15:00:05.905Z,6.50
2018-04-15T15:02:41.221Z,7.03
2018-04-15T15:05:16.488Z,5.00
2018-04-15T15:07:56.822Z,6.90
2018-04-15T15:10:32.634Z,6.50
2018-04-15T15:13:08.390Z,13.33
2018-04-15T15:15:43.286Z,10.03
2018-04-15T15:18:19.895Z,7.87
2018-04-15T15:20:56.504Z,10.03
2018-04-15T15:23:31.881Z,5.70
2018-04-15T15:26:08.683Z,8.20
2018-04-15T15:28:44.759Z,8.23
2018-04-15T15:31:23.519Z,9.47
2018-04-15T15:34:03.690Z,10.50
2018-04-15T15:36:41.504Z,7.83
2018-04-15T15:39:17.284Z,12.83
2018-04-15T15:41:52.914Z,10.17
2018-04-15T15:44:28.395Z,9.87
2018-04-15T15:47:03.737Z,4.87
2018-04-15T15:49:45.088Z,10.07
2018-04-15T15:52:20.246Z,8.27
2018-04-15T15:54:55.698Z,7.13
2018-04-15T15:57:31.163Z,6.10
2018-04-15T16:00:08.895Z,7.03
2018-04-15T16:02:44.418Z,7.33
2018-04-15T16:05:20.075Z,9.13
2018-04-15T16:07:55.353Z,6.77
2018-04-15T16:10:31.867Z,8.17
2018-04-15T16:13:07.313Z,11.33
2018-04-15T16:15:43.327Z,6.03
2018-04-15T16:18:19.277Z,5.70
2018-04-15T16:20:54.647Z,11.10
2018-04-15T16:23:42.654Z,12.50
2018-04-15T16:26:18.779Z,11.67
2018-04-15T16:28:55.494Z,8.30
2018-04-15T16:31:31.623Z,8.47
2018-04-15T16:34:07.050Z,9.10
2018-04-15T16:36:42.377Z,12.07
2018-04-15T16:39:18.231Z,9.10
2018-04-15T16:41:54.614Z,7.33
2018-04-15T16:44:31.555Z,9.93
2018-04-15T16:47:06.787Z,17.83
2018-04-15T16:49:41.318Z,10.67
2018-04-15T16:52:17.369Z,7.17
2018-04-15T16:54:53.649Z,8.87
2018-04-15T16:57:29.088Z,8.67
2018-04-15T17:00:03.906Z,7.37
2018-04-15T17:02:40.486Z,8.77
2018-04-15T17:05:16.348Z,6.43
2018-04-15T17:07:52.266Z,6.63
2018-04-15T17:10:32.131Z,10.73
2018-04-15T17:13:12.130Z,5.80
2018-04-15T17:15:51.772Z,11.00
2018-04-15T17:18:31.554Z,9.20
2018-04-15T17:21:11.567Z,9.43
2018-04-15T17:23:51.416Z,9.37
2018-04-15T17:26:31.439Z,8.23
2018-04-15T17:29:11.356Z,10.10
2018-04-15T17:31:51.270Z,10.30
2018-04-15T17:34:31.123Z,9.90
2018-04-15T17:37:11.042Z,8.37
2018-04-15T17:39:50.654Z,6.90
2018-04-15T17:42:31.135Z,8.30
2018-04-15T17:45:11.081Z,8.40
2018-04-15T17:47:51.098Z,6.57
2018-04-15T17:50:31.375Z,14.37
2018-04-15T17:53:12.095Z,11.50
2018-04-15T17:55:52.623Z,14.53
2018-04-15T17:58:32.811Z,10.23
2018-04-15T18:01:14.258Z,12.73
2018-04-15T18:03:53.863Z,12.17
2018-04-15T18:06:33.923Z,13.50
2018-04-15T18:09:15.517Z,13.30
2018-04-15T18:11:55.591Z,15.33
2018-04-15T18:14:35.481Z,14.70
2018-04-15T18:17:15.468Z,15.30
2018-04-15T18:19:56.467Z,12.37
2018-04-15T18:22:38.264Z,14.43
2018-04-15T18:25:13.035Z,19.33
2018-04-15T18:27:53.087Z,26.03
2018-04-15T18:30:32.685Z,32.00
2018-04-15T18:33:12.982Z,25.83
2018-04-15T18:35:53.624Z,35.47
2018-04-15T18:38:33.470Z,26.40
2018-04-15T18:41:13.809Z,24.65
2018-04-15T18:43:53.733Z,21.50
2018-04-15T18:46:34.713Z,27.37
2018-04-15T18:49:15.096Z,29.23
2018-04-15T18:51:55.362Z,20.67
2018-04-15T18:54:35.488Z,17.12
2018-04-15T18:57:15.651Z,25.55
2018-04-15T18:59:55.910Z,19.35
2018-04-15T19:02:35.794Z,16.23
2018-04-15T19:05:16.052Z,16.60
2018-04-15T19:07:56.963Z,17.53
2018-04-15T19:10:37.180Z,18.45
2018-04-15T19:13:17.563Z,14.25
2018-04-15T19:15:58.541Z,17.80
2018-04-15T19:18:38.807Z,16.33
2018-04-15T19:21:18.780Z,17.00
2018-04-15T19:23:59.643Z,19.55
2018-04-15T19:26:39.650Z,15.30
2018-04-15T19:29:20.311Z,19.17
2018-04-15T19:32:01.182Z,15.83
2018-04-15T19:34:42.541Z,17.00
2018-04-15T19:37:23.286Z,20.17
2018-04-15T19:40:04.472Z,19.70
2018-04-15T19:42:44.777Z,17.27
2018-04-15T19:45:25.179Z,17.08
2018-04-15T19:48:04.701Z,19.33
2018-04-15T19:50:44.699Z,17.23
2018-04-15T19:53:25.349Z,16.92
2018-04-15T19:56:00.489Z,19.52
2018-04-15T19:58:37.980Z,21.02
2018-04-15T20:01:13.399Z,21.65
2018-04-15T20:03:49.983Z,23.73
2018-04-15T20:06:28.054Z,19.27
2018-04-15T20:09:04.459Z,26.52
2018-04-15T20:11:42.050Z,20.40
2018-04-15T20:14:17.527Z,20.58
2018-04-15T20:16:53.751Z,21.27
2018-04-15T20:19:29.514Z,28.98
2018-04-15T20:22:05.297Z,22.17
2018-04-15T20:24:42.623Z,17.15
2018-04-15T20:27:18.384Z,18.20
2018-04-15T20:29:54.305Z,20.62
2018-04-15T20:32:29.748Z,18.62
2018-04-15T20:35:05.836Z,19.52
2018-04-15T20:37:43.981Z,23.70
2018-04-15T20:40:21.131Z,17.55
2018-04-15T20:42:57.002Z,19.12
2018-04-15T20:45:32.529Z,15.95
2018-04-15T20:48:09.080Z,23.10
2018-04-15T20:50:46.760Z,19.27
2018-04-15T20:53:22.531Z,23.25
2018-04-15T20:55:58.165Z,18.95
2018-04-15T20:58:33.958Z,15.70
2018-04-15T21:01:09.407Z,16.17
2018-04-15T21:03:45.153Z,18.20
2018-04-15T21:06:23.813Z,15.63
2018-04-15T21:09:00.032Z,19.00
2018-04-15T21:11:35.891Z,16.65
2018-04-15T21:14:12.426Z,17.70
2018-04-15T21:16:48.099Z,13.88
2018-04-15T21:19:24.256Z,13.93
2018-04-15T21:22:00.003Z,10.85
2018-04-15T21:24:37.051Z,15.88
2018-04-15T21:27:14.386Z,17.70
2018-04-15T21:29:49.591Z,14.27
2018-04-15T21:32:25.201Z,11.55
2018-04-15T21:35:01.805Z,14.55
2018-04-15T21:37:38.544Z,14.95
2018-04-15T21:40:14.331Z,11.80
2018-04-15T21:42:49.799Z,12.57
2018-04-15T21:45:25.570Z,11.12
2018-04-15T21:48:02.202Z,13.73
2018-04-15T21:50:38.801Z,11.98
2018-04-15T21:53:14.917Z,10.77
2018-04-15T21:55:50.377Z,11.95
2018-04-15T21:58:26.830Z,15.50
2018-04-15T22:01:02.416Z,12.37
2018-04-15T22:03:37.890Z,13.20
2018-04-15T22:06:13.984Z,13.52
2018-04-15T22:08:49.481Z,13.88
2018-04-15T22:11:36.162Z,15.15
2018-04-15T22:14:13.756Z,13.77
2018-04-15T22:16:50.458Z,13.15
2018-04-15T22:19:26.195Z,14.15
2018-04-15T22:22:01.943Z,16.17
2018-04-15T22:24:37.747Z,12.77
2018-04-15T22:27:13.218Z,14.87
2018-04-15T22:29:49.582Z,12.63
2018-04-15T22:32:25.843Z,9.93
2018-04-15T22:35:01.629Z,10.80
2018-04-15T22:37:37.963Z,9.45
2018-04-15T22:40:13.409Z,11.12
2018-04-15T22:42:50.381Z,8.70
2018-04-15T22:45:26.679Z,9.52
2018-04-15T22:48:05.338Z,10.85
2018-04-15T22:50:42.568Z,11.35
2018-04-15T22:53:19.536Z,9.48
2018-04-15T22:55:55.599Z,10.73
2018-04-15T22:58:38.252Z,12.35
2018-04-15T23:01:13.563Z,10.40
2018-04-15T23:03:49.053Z,13.95
2018-04-15T23:06:25.099Z,10.77
2018-04-15T23:09:01.097Z,11.18
2018-04-15T23:11:39.481Z,11.45
2018-04-15T23:14:15.777Z,10.88
2018-04-15T23:16:52.451Z,13.15
2018-04-15T23:19:27.987Z,10.95
2018-04-15T23:22:04.417Z,9.52
2018-04-15T23:24:42.056Z,10.90
2018-04-15T23:27:20.103Z,9.93
2018-04-15T23:29:56.018Z,11.40
2018-04-15T23:32:32.558Z,11.32
2018-04-15T23:35:10.459Z,9.70
2018-04-15T23:37:46.392Z,10.73
2018-04-15T23:40:22.374Z,7.70
2018-04-15T23:42:58.216Z,13.30
2018-04-15T23:45:34.397Z,8.13
2018-04-15T23:48:10.596Z,10.73
2018-04-15T23:50:48.466Z,12.63
2018-04-15T23:53:24.587Z,8.90
2018-04-15T23:56:00.598Z,11.57
2018-04-15T23:58:36.667Z,10.05
